Dades de l'estació automàtica Ulldeter (2.413 m)
Resum diari
22:30 TU| Temperatura mitjana | 13.5 °C | |
|---|---|---|
| Temperatura màxima | 16.4 °C | 11:14 TU |
| Temperatura mínima | 11.7 °C | 18:51 TU |
| Humitat relativa mitjana | 65% | |
| Precipitació acumulada | 0.0 mm | |
| Gruix de neu màxim | 0 cm | |
| Ratxa màxima del vent (10 m) | 52.6 km/h - 296º | 0:22 TU |
| Irradiació solar global | 21.6 MJ/m2 | |
El tram horari està expressat en Temps Universal (TU). Cal sumar una hora en horari d'hivern i dues en horari d'estiu per passar a l'hora oficial.
Ulldeter (2.413 m)
| Municipi | Setcases |
|---|---|
| Comarca | Ripollès |
| Altitud | 2413 m |
| Data alta | 28.09.2011 |
| Estat actual | Operativa |
| Període TU |
TM °C |
TX °C |
TN °C |
HRM % |
PPT mm |
GN cm |
VVM (10 m) km/h |
DVM (10 m) graus |
VVX (10 m) km/h |
RS W/m2 |
|---|---|---|---|---|---|---|---|---|---|---|
| 00:00 - 00:30 | 12.6 | 12.8 | 12.4 | 52 | 0.0 | (s/d) | 24.5 | 306 | 52.6 | 0 |
| 00:30 - 01:00 | 12.4 | 12.8 | 11.7 | 52 | 0.0 | (s/d) | 14.4 | 305 | 44.6 | 0 |
| 01:00 - 01:30 | 12.4 | 12.8 | 12.3 | 52 | 0.0 | (s/d) | 20.2 | 312 | 43.2 | 0 |
| 01:30 - 02:00 | 12.1 | 12.6 | 11.7 | 52 | 0.0 | (s/d) | 11.9 | 334 | 34.6 | 0 |
| 02:00 - 02:30 | 12.6 | 12.8 | 12.4 | 49 | 0.0 | (s/d) | 17.3 | 312 | 38.9 | 0 |
| 02:30 - 03:00 | 12.9 | 13.1 | 12.7 | 48 | 0.0 | (s/d) | 25.6 | 306 | 47.9 | 0 |
| 03:00 - 03:30 | 12.7 | 13.0 | 12.5 | 50 | 0.0 | (s/d) | 20.2 | 289 | 35.3 | 0 |
| 03:30 - 04:00 | 12.8 | 13.0 | 12.6 | 55 | 0.0 | (s/d) | 19.1 | 309 | 38.2 | 0 |
| 04:00 - 04:30 | 12.8 | 13.1 | 12.6 | 61 | 0.0 | (s/d) | 23.4 | 300 | 44.3 | 0 |
| 04:30 - 05:00 | 12.7 | 12.8 | 12.5 | 66 | 0.0 | (s/d) | 22.0 | 299 | 42.8 | 0 |
| 05:00 - 05:30 | 12.7 | 12.8 | 12.6 | 69 | 0.0 | (s/d) | 20.5 | 297 | 35.6 | 6 |
| 05:30 - 06:00 | 12.9 | 13.1 | 12.7 | 70 | 0.0 | (s/d) | 19.8 | 292 | 37.1 | 71 |
| 06:00 - 06:30 | 13.1 | 13.1 | 12.9 | 68 | 0.0 | (s/d) | 17.6 | 294 | 38.2 | 170 |
| 06:30 - 07:00 | 13.4 | 13.6 | 13.2 | 65 | 0.0 | (s/d) | 15.1 | 284 | 31.7 | 281 |
| 07:00 - 07:30 | 13.8 | 14.0 | 13.5 | 62 | 0.0 | (s/d) | 14.4 | 292 | 34.9 | 385 |
| 07:30 - 08:00 | 14.2 | 14.8 | 13.9 | 60 | 0.0 | (s/d) | 11.5 | 295 | 29.9 | 483 |
| 08:00 - 08:30 | 14.8 | 15.2 | 14.5 | 58 | 0.0 | (s/d) | 7.6 | 166 | 28.4 | 579 |
| 08:30 - 09:00 | 15.2 | 15.5 | 15.0 | 55 | 0.0 | (s/d) | 9.4 | 207 | 31.3 | 665 |
| 09:00 - 09:30 | 15.2 | 15.9 | 14.9 | 58 | 0.0 | (s/d) | 10.1 | 197 | 34.9 | 736 |
| 09:30 - 10:00 | 15.5 | 15.9 | 15.3 | 52 | 0.0 | 0 | 17.3 | 208 | 41.0 | 803 |
| 10:00 - 10:30 | 15.8 | 16.1 | 15.6 | 49 | 0.0 | 0 | 15.1 | 198 | 46.1 | 847 |
| 10:30 - 11:00 | 15.8 | 16.1 | 15.5 | 50 | 0.0 | 0 | 19.1 | 212 | 37.1 | 795 |
| 11:00 - 11:30 | 15.6 | 16.4 | 14.6 | 65 | 0.0 | 0 | 13.7 | 172 | 31.7 | 913 |
| 11:30 - 12:00 | 15.0 | 16.0 | 14.1 | 80 | 0.0 | 0 | 8.6 | 175 | 27.4 | 894 |
| 12:00 - 12:30 | 14.5 | 14.7 | 14.1 | 82 | 0.0 | 0 | 10.4 | 172 | 25.2 | 741 |
| 12:30 - 13:00 | 14.4 | 15.0 | 13.8 | 84 | 0.0 | 0 | 7.6 | 152 | 17.6 | 711 |
| 13:00 - 13:30 | 13.8 | 14.7 | 12.8 | 87 | 0.0 | 0 | 11.2 | 205 | 27.7 | 505 |
| 13:30 - 14:00 | 12.9 | 13.4 | 12.6 | 87 | 0.0 | 0 | 16.2 | 218 | 27.4 | 427 |
| 14:00 - 14:30 | 13.5 | 14.2 | 12.8 | 83 | 0.0 | 0 | 10.8 | 211 | 22.0 | 478 |
| 14:30 - 15:00 | 14.0 | 14.8 | 13.5 | 82 | 0.0 | 0 | 10.4 | 196 | 27.4 | 599 |
| 15:00 - 15:30 | 13.8 | 14.2 | 13.4 | 78 | 0.0 | 0 | 15.8 | 210 | 28.1 | 285 |
| 15:30 - 16:00 | 14.4 | 14.9 | 13.6 | 72 | 0.0 | (s/d) | 12.6 | 192 | 25.2 | 386 |
| 16:00 - 16:30 | 13.5 | 14.2 | 13.1 | 81 | 0.0 | (s/d) | 16.6 | 209 | 29.2 | 166 |
| 16:30 - 17:00 | 12.8 | 13.1 | 12.7 | 86 | 0.0 | (s/d) | 14.8 | 218 | 22.7 | 78 |
| 17:00 - 17:30 | 12.8 | 12.9 | 12.7 | 83 | 0.0 | (s/d) | 13.0 | 215 | 20.9 | 48 |
| 17:30 - 18:00 | 12.5 | 12.8 | 12.1 | 88 | 0.0 | (s/d) | 7.2 | 262 | 14.0 | 23 |
| 18:00 - 18:30 | 12.0 | 12.2 | 11.9 | 94 | 0.0 | (s/d) | 10.1 | 240 | 16.9 | 5 |
| 18:30 - 19:00 | 12.2 | 12.5 | 11.7 | 84 | 0.0 | (s/d) | 4.3 | 247 | 12.6 | 0 |
| 19:00 - 19:30 | 13.0 | 13.4 | 12.6 | 70 | 0.0 | (s/d) | 7.2 | 255 | 10.4 | 0 |
| 19:30 - 20:00 | 12.9 | 13.3 | 12.6 | 67 | 0.0 | (s/d) | 6.1 | 280 | 17.3 | 0 |
| 20:00 - 20:30 | 13.0 | 13.5 | 12.8 | 59 | 0.0 | (s/d) | 5.8 | 192 | 18.4 | 0 |
| 20:30 - 21:00 | 13.1 | 13.7 | 12.7 | 54 | 0.0 | (s/d) | 4.7 | 44 | 19.4 | 0 |
| 21:00 - 21:30 | 13.6 | 13.7 | 13.3 | 48 | 0.0 | (s/d) | 7.6 | 347 | 30.2 | 0 |
| 21:30 - 22:00 | 13.9 | 14.0 | 13.7 | 44 | 0.0 | (s/d) | 13.7 | 304 | 32.0 | 0 |
| 22:00 - 22:30 | 13.9 | 14.2 | 13.5 | 39 | 0.0 | (s/d) | 6.1 | 6 | 20.2 | 0 |
| 22:30 - 23:00 | 13.7 | 14.1 | 13.4 | 40 | 0.0 | (s/d) | 9.0 | 312 | 27.7 | 0 |
Les dades en taronja només han passat un control de qualitat automàtic. Resta pendent la seva validació definitiva.